createdAt,value
2023-02-04T00:00:02.685Z,0.50
2023-02-04T00:02:29.866Z,0.40
2023-02-04T00:04:56.950Z,0.30
2023-02-04T00:07:24.036Z,0.40
2023-02-04T00:09:51.128Z,0.20
2023-02-04T00:12:18.244Z,0.40
2023-02-04T00:14:45.492Z,0.27
2023-02-04T00:17:13.003Z,0.30
2023-02-04T00:19:40.906Z,0.20
2023-02-04T00:22:08.501Z,0.30
2023-02-04T00:24:36.009Z,0.30
2023-02-04T00:27:03.570Z,0.30
2023-02-04T00:29:30.903Z,0.37
2023-02-04T00:31:58.522Z,0.30
2023-02-04T00:34:25.973Z,0.47
2023-02-04T00:36:53.059Z,0.30
2023-02-04T00:39:20.168Z,0.30
2023-02-04T00:41:47.243Z,0.30
2023-02-04T00:44:14.301Z,0.30
2023-02-04T00:46:42.620Z,0.33
2023-02-04T00:49:10.683Z,0.50
2023-02-04T00:51:44.344Z,0.30
2023-02-04T00:54:11.371Z,0.30
2023-02-04T00:56:38.458Z,0.50
2023-02-04T00:59:05.515Z,0.40
2023-02-04T01:01:32.612Z,0.50
2023-02-04T01:03:59.669Z,0.40
2023-02-04T01:06:26.744Z,0.30
2023-02-04T01:08:53.822Z,0.50
2023-02-04T01:11:20.915Z,0.40
2023-02-04T01:13:48.233Z,0.43
2023-02-04T01:16:15.361Z,0.40
2023-02-04T01:18:42.417Z,0.37
2023-02-04T01:21:09.752Z,0.47
2023-02-04T01:23:37.851Z,0.40
2023-02-04T01:26:05.249Z,0.57
2023-02-04T01:28:32.357Z,0.60
2023-02-04T01:30:59.498Z,0.50
2023-02-04T01:33:26.567Z,0.60
2023-02-04T01:35:53.671Z,0.40
2023-02-04T01:38:20.855Z,0.50
2023-02-04T01:40:48.260Z,0.43
2023-02-04T01:43:17.740Z,0.60
2023-02-04T01:45:47.610Z,0.50
2023-02-04T01:48:20.339Z,0.60
2023-02-04T01:51:00.344Z,0.60
2023-02-04T01:53:27.543Z,0.50
2023-02-04T01:55:54.643Z,0.50
2023-02-04T01:58:21.753Z,0.60
2023-02-04T02:00:48.942Z,0.60
2023-02-04T02:03:16.093Z,0.63
2023-02-04T02:05:45.036Z,0.60
2023-02-04T02:08:13.202Z,0.60
2023-02-04T02:10:41.572Z,0.77
2023-02-04T02:13:10.645Z,0.70
2023-02-04T02:15:37.808Z,0.70
2023-02-04T02:18:04.893Z,0.60
2023-02-04T02:20:32.138Z,0.70
2023-02-04T02:23:02.185Z,0.70
2023-02-04T02:25:29.290Z,0.80
2023-02-04T02:27:57.098Z,0.67
2023-02-04T02:30:24.250Z,0.70
2023-02-04T02:32:52.704Z,0.80
2023-02-04T02:35:19.766Z,0.80
2023-02-04T02:37:46.840Z,0.90
2023-02-04T02:40:14.719Z,0.60
2023-02-04T02:42:43.415Z,1.10
2023-02-04T02:45:23.345Z,0.90
2023-02-04T02:47:50.803Z,0.70
2023-02-04T02:50:19.389Z,0.90
2023-02-04T02:52:46.419Z,0.80
2023-02-04T02:55:18.261Z,0.90
2023-02-04T02:57:46.523Z,0.90
2023-02-04T03:00:16.796Z,0.97
2023-02-04T03:02:44.072Z,0.60
2023-02-04T03:05:12.356Z,1.30
2023-02-04T03:07:39.480Z,1.00
2023-02-04T03:10:06.662Z,1.10
2023-02-04T03:12:34.399Z,0.87
2023-02-04T03:15:01.580Z,0.77
2023-02-04T03:17:28.699Z,0.90
2023-02-04T03:19:55.786Z,0.90
2023-02-04T03:22:22.897Z,1.00
2023-02-04T03:24:50.024Z,1.00
2023-02-04T03:27:17.082Z,0.90
2023-02-04T03:29:46.877Z,0.90
2023-02-04T03:32:13.957Z,0.90
2023-02-04T03:34:41.046Z,1.00
2023-02-04T03:37:08.260Z,0.90
2023-02-04T03:39:35.439Z,1.07
2023-02-04T03:42:02.492Z,0.90
2023-02-04T03:44:29.536Z,1.07
2023-02-04T03:46:56.658Z,0.90
2023-02-04T03:49:24.224Z,0.80
2023-02-04T03:51:51.424Z,0.70
2023-02-04T03:54:19.565Z,0.67
2023-02-04T03:56:46.700Z,0.77
2023-02-04T03:59:13.798Z,0.50
2023-02-04T04:01:40.911Z,0.60
2023-02-04T04:04:07.967Z,0.60
2023-02-04T04:06:35.037Z,0.43
2023-02-04T04:09:02.074Z,0.70
2023-02-04T04:11:29.160Z,0.60
2023-02-04T04:13:56.259Z,0.70
2023-02-04T04:16:23.405Z,0.70
2023-02-04T04:18:50.474Z,0.70
2023-02-04T04:21:17.582Z,0.70
2023-02-04T04:23:44.646Z,0.73
2023-02-04T04:26:11.726Z,0.67
2023-02-04T04:28:38.837Z,0.90
2023-02-04T04:31:06.002Z,0.40
2023-02-04T04:33:33.172Z,0.83
2023-02-04T04:36:00.299Z,0.83
2023-02-04T04:38:27.358Z,1.03
2023-02-04T04:40:54.479Z,0.97
2023-02-04T04:43:21.562Z,1.23
2023-02-04T04:45:48.611Z,1.40
2023-02-04T04:48:15.732Z,1.10
2023-02-04T04:50:42.874Z,0.87
2023-02-04T04:53:11.358Z,0.87
2023-02-04T04:55:39.079Z,1.13
2023-02-04T04:58:06.697Z,1.13
2023-02-04T05:00:34.187Z,0.70
2023-02-04T05:03:01.615Z,1.13
2023-02-04T05:05:28.693Z,0.90
2023-02-04T05:07:55.803Z,1.00
2023-02-04T05:10:22.874Z,0.73
2023-02-04T05:12:49.948Z,1.03
2023-02-04T05:15:17.124Z,0.70
2023-02-04T05:17:44.270Z,0.90
2023-02-04T05:20:11.544Z,0.90
2023-02-04T05:22:38.655Z,1.00
2023-02-04T05:25:05.826Z,1.20
2023-02-04T05:27:32.905Z,1.23
2023-02-04T05:29:59.933Z,1.17
2023-02-04T05:32:27.021Z,1.00
2023-02-04T05:34:54.071Z,0.90
2023-02-04T05:37:21.209Z,1.17
2023-02-04T05:39:48.315Z,1.00
2023-02-04T05:42:15.369Z,1.10
2023-02-04T05:44:42.405Z,1.07
2023-02-04T05:47:09.493Z,1.40
2023-02-04T05:49:36.572Z,0.90
2023-02-04T05:52:03.693Z,0.80
2023-02-04T05:54:30.792Z,0.90
2023-02-04T05:56:57.847Z,0.90
2023-02-04T05:59:24.942Z,0.80
2023-02-04T06:01:51.972Z,1.10
2023-02-04T06:04:19.243Z,0.90
2023-02-04T06:06:46.437Z,0.80
2023-02-04T06:09:13.573Z,0.83
2023-02-04T06:11:40.660Z,0.90
2023-02-04T06:14:07.880Z,1.03
2023-02-04T06:16:35.055Z,1.10
2023-02-04T06:19:02.147Z,0.90
2023-02-04T06:21:29.448Z,0.90
2023-02-04T06:23:56.621Z,0.80
2023-02-04T06:26:24.225Z,0.80
2023-02-04T06:28:51.366Z,0.90
2023-02-04T06:31:18.478Z,0.67
2023-02-04T06:33:45.575Z,0.70
2023-02-04T06:36:12.712Z,0.70
2023-02-04T06:38:39.776Z,0.60
2023-02-04T06:41:06.842Z,0.60
2023-02-04T06:43:33.913Z,0.60
2023-02-04T06:46:00.972Z,0.80
2023-02-04T06:48:29.622Z,0.60
2023-02-04T06:50:57.893Z,0.60
2023-02-04T06:53:25.030Z,0.73
2023-02-04T06:55:52.748Z,0.70
2023-02-04T06:58:19.812Z,0.97
2023-02-04T07:00:46.853Z,0.70
2023-02-04T07:03:13.914Z,0.97
2023-02-04T07:05:40.991Z,0.97
2023-02-04T07:08:08.151Z,0.80
2023-02-04T07:10:35.553Z,1.00
2023-02-04T07:13:02.745Z,1.20
2023-02-04T07:15:30.958Z,0.83
2023-02-04T07:17:58.141Z,1.07
2023-02-04T07:20:25.231Z,0.90
2023-02-04T07:22:52.305Z,1.00
2023-02-04T07:25:19.446Z,0.90
2023-02-04T07:27:46.559Z,0.90
2023-02-04T07:30:13.971Z,0.60
2023-02-04T07:32:41.024Z,1.00
2023-02-04T07:35:08.251Z,0.80
2023-02-04T07:37:35.330Z,1.03
2023-02-04T07:40:02.445Z,0.80
2023-02-04T07:42:29.492Z,0.90
2023-02-04T07:44:56.543Z,1.00
2023-02-04T07:47:23.596Z,0.90
2023-02-04T07:49:51.025Z,0.67
2023-02-04T07:52:18.070Z,1.00
2023-02-04T07:54:45.133Z,0.90
2023-02-04T07:57:12.168Z,1.00
2023-02-04T07:59:39.246Z,1.10
2023-02-04T08:02:06.909Z,1.13
2023-02-04T08:04:33.962Z,1.33
2023-02-04T08:07:00.992Z,1.10
2023-02-04T08:09:28.127Z,0.90
2023-02-04T08:11:55.255Z,1.20
2023-02-04T08:14:22.343Z,1.30
2023-02-04T08:16:49.444Z,1.00
2023-02-04T08:19:19.015Z,1.30
2023-02-04T08:21:46.396Z,1.20
2023-02-04T08:24:13.931Z,1.50
2023-02-04T08:26:41.675Z,1.40
2023-02-04T08:29:09.346Z,1.53
2023-02-04T08:31:37.638Z,1.73
2023-02-04T08:34:05.338Z,1.60
2023-02-04T08:36:32.791Z,1.50
2023-02-04T08:38:59.869Z,1.70
2023-02-04T08:41:26.976Z,1.40
2023-02-04T08:43:54.035Z,1.60
2023-02-04T08:46:21.164Z,1.57
2023-02-04T08:48:48.291Z,1.30
2023-02-04T08:51:15.463Z,1.47
2023-02-04T08:53:42.545Z,1.30
2023-02-04T08:56:10.395Z,1.70
2023-02-04T08:58:37.540Z,1.77
2023-02-04T09:01:04.789Z,1.70
2023-02-04T09:03:32.064Z,1.40
2023-02-04T09:05:59.133Z,1.70
2023-02-04T09:08:26.189Z,1.60
2023-02-04T09:10:53.258Z,1.70
2023-02-04T09:13:20.432Z,1.37
2023-02-04T09:15:47.556Z,1.57
2023-02-04T09:18:16.821Z,1.57
2023-02-04T09:20:44.507Z,1.33
2023-02-04T09:23:12.214Z,1.43
2023-02-04T09:25:39.924Z,1.30
2023-02-04T09:28:10.040Z,1.67
2023-02-04T09:30:37.131Z,1.47
2023-02-04T09:33:04.299Z,1.33
2023-02-04T09:35:31.341Z,1.40
2023-02-04T09:37:58.559Z,1.80
2023-02-04T09:40:27.472Z,1.50
2023-02-04T09:42:55.155Z,1.40
2023-02-04T09:45:23.985Z,1.20
2023-02-04T09:47:52.001Z,1.77
2023-02-04T09:50:21.619Z,1.30
2023-02-04T09:52:50.130Z,1.57
2023-02-04T09:55:18.286Z,1.67
2023-02-04T09:57:45.579Z,1.40
2023-02-04T10:00:22.770Z,1.30
2023-02-04T10:02:49.975Z,1.33
2023-02-04T10:05:18.460Z,1.37
2023-02-04T10:07:46.588Z,1.50
2023-02-04T10:10:25.172Z,1.43
2023-02-04T10:12:53.329Z,1.30
2023-02-04T10:15:21.941Z,1.53
2023-02-04T10:17:53.248Z,1.30
2023-02-04T10:20:21.751Z,1.27
2023-02-04T10:22:50.397Z,1.27
2023-02-04T10:25:18.558Z,1.20
2023-02-04T10:27:53.444Z,1.40
2023-02-04T10:30:22.829Z,1.30
2023-02-04T10:32:50.022Z,1.50
2023-02-04T10:35:18.433Z,1.60
2023-02-04T10:37:45.764Z,1.40
2023-02-04T10:40:28.242Z,1.80
2023-02-04T10:42:55.448Z,2.00
2023-02-04T10:45:26.890Z,1.60
2023-02-04T10:47:55.028Z,2.00
2023-02-04T10:50:30.715Z,1.93
2023-02-04T10:53:19.316Z,1.90
2023-02-04T10:55:47.105Z,1.90
2023-02-04T10:58:16.688Z,2.47
2023-02-04T11:00:43.743Z,2.07
2023-02-04T11:03:19.689Z,1.90
2023-02-04T11:05:46.836Z,1.87
2023-02-04T11:08:22.799Z,1.60
2023-02-04T11:10:59.672Z,1.87
2023-02-04T11:13:28.092Z,1.77
2023-02-04T11:16:07.510Z,1.77
2023-02-04T11:18:44.132Z,1.67
2023-02-04T11:21:15.444Z,1.40
2023-02-04T11:23:42.601Z,1.57
2023-02-04T11:26:22.621Z,1.90
2023-02-04T11:28:52.479Z,1.97
2023-02-04T11:31:22.499Z,1.50
2023-02-04T11:33:50.826Z,1.53
2023-02-04T11:36:18.410Z,1.80
2023-02-04T11:38:46.724Z,1.30
2023-02-04T11:41:18.743Z,1.60
2023-02-04T11:43:45.846Z,1.50
2023-02-04T11:46:17.413Z,1.60
2023-02-04T11:48:44.719Z,1.20
2023-02-04T11:51:21.993Z,1.70
2023-02-04T11:53:52.377Z,1.50
2023-02-04T11:56:20.446Z,1.53
2023-02-04T11:58:48.622Z,1.43
2023-02-04T12:01:21.000Z,1.47
2023-02-04T12:03:49.504Z,1.33
2023-02-04T12:06:23.338Z,1.30
2023-02-04T12:08:50.520Z,1.60
2023-02-04T12:11:30.291Z,1.43
2023-02-04T12:13:58.839Z,1.73
2023-02-04T12:16:26.503Z,1.40
2023-02-04T12:18:54.888Z,1.10
2023-02-04T12:21:21.952Z,1.30
2023-02-04T12:23:49.047Z,1.50
2023-02-04T12:26:16.176Z,1.10
2023-02-04T12:28:43.257Z,1.53
2023-02-04T12:31:10.680Z,1.17
2023-02-04T12:33:38.017Z,1.20
2023-02-04T12:36:05.293Z,1.20
2023-02-04T12:38:32.390Z,1.20
2023-02-04T12:40:59.492Z,1.40
2023-02-04T12:43:28.323Z,1.27
2023-02-04T12:45:55.729Z,1.20
2023-02-04T12:48:22.832Z,1.10
2023-02-04T12:50:49.935Z,1.50
2023-02-04T12:53:17.022Z,1.03
2023-02-04T12:55:44.104Z,1.00
2023-02-04T12:58:11.183Z,1.00
2023-02-04T13:00:38.685Z,0.90
2023-02-04T13:03:05.746Z,0.87
2023-02-04T13:05:33.271Z,0.80
2023-02-04T13:08:00.503Z,0.80
2023-02-04T13:10:27.659Z,0.80
2023-02-04T13:12:54.733Z,1.10
2023-02-04T13:15:21.797Z,0.80
2023-02-04T13:17:48.940Z,1.30
2023-02-04T13:20:16.054Z,0.90
2023-02-04T13:22:43.102Z,0.80
2023-02-04T13:25:11.620Z,0.90
2023-02-04T13:27:39.223Z,0.60
2023-02-04T13:30:07.188Z,0.80
2023-02-04T13:32:34.283Z,0.70
2023-02-04T13:35:01.428Z,0.60
2023-02-04T13:37:28.473Z,0.50
2023-02-04T13:39:55.554Z,0.40
2023-02-04T13:42:22.637Z,0.70
2023-02-04T13:44:49.720Z,0.50
2023-02-04T13:47:16.787Z,0.80
2023-02-04T13:49:43.907Z,0.87
2023-02-04T13:52:10.945Z,1.03
2023-02-04T13:54:38.068Z,1.00
2023-02-04T13:57:05.522Z,0.63
2023-02-04T13:59:32.714Z,0.50
2023-02-04T14:01:59.897Z,0.60
2023-02-04T14:04:27.097Z,0.60
2023-02-04T14:06:55.337Z,0.50
2023-02-04T14:09:23.020Z,0.40
2023-02-04T14:11:50.178Z,0.40
2023-02-04T14:14:17.252Z,0.70
2023-02-04T14:16:44.386Z,0.50
2023-02-04T14:19:11.675Z,0.40
2023-02-04T14:21:38.770Z,0.80
2023-02-04T14:24:05.983Z,0.40
2023-02-04T14:26:33.136Z,1.00
2023-02-04T14:29:00.174Z,0.60
2023-02-04T14:31:27.324Z,0.50
2023-02-04T14:33:55.190Z,0.80
2023-02-04T14:36:22.368Z,0.60
2023-02-04T14:38:49.612Z,0.50
2023-02-04T14:41:19.990Z,0.50
2023-02-04T14:43:47.077Z,0.60
2023-02-04T14:46:14.383Z,0.80
2023-02-04T14:48:41.580Z,0.67
2023-02-04T14:51:08.692Z,0.60
2023-02-04T14:53:35.796Z,0.80
2023-02-04T14:56:02.964Z,0.73
2023-02-04T14:58:30.015Z,1.30
2023-02-04T15:00:57.572Z,1.10
2023-02-04T15:03:24.665Z,1.40
2023-02-04T15:05:51.715Z,1.30
2023-02-04T15:08:18.862Z,1.20
2023-02-04T15:10:46.056Z,0.67
2023-02-04T15:13:13.437Z,0.87
2023-02-04T15:15:40.496Z,0.73
2023-02-04T15:18:07.574Z,1.07
2023-02-04T15:20:34.907Z,0.50
2023-02-04T15:23:02.220Z,0.80
2023-02-04T15:25:29.292Z,0.33
2023-02-04T15:27:56.354Z,0.60
2023-02-04T15:30:23.460Z,0.50
2023-02-04T15:32:50.570Z,0.50
2023-02-04T15:35:17.657Z,0.50
2023-02-04T15:37:44.763Z,0.50
2023-02-04T15:40:12.304Z,0.70
2023-02-04T15:42:39.636Z,0.60
2023-02-04T15:45:06.974Z,0.80
2023-02-04T15:47:34.038Z,0.67
2023-02-04T15:50:01.154Z,0.60
2023-02-04T15:52:29.381Z,0.30
2023-02-04T15:54:56.638Z,0.47
2023-02-04T15:57:23.888Z,0.50
2023-02-04T15:59:50.934Z,0.60
2023-02-04T16:02:18.128Z,0.80
2023-02-04T16:04:45.342Z,0.80
2023-02-04T16:07:12.782Z,0.83
2023-02-04T16:09:39.974Z,0.77
2023-02-04T16:12:07.163Z,1.47
2023-02-04T16:14:34.260Z,1.17
2023-02-04T16:17:06.826Z,1.30
2023-02-04T16:19:33.946Z,1.40
2023-02-04T16:22:01.071Z,2.00
2023-02-04T16:24:28.275Z,1.40
2023-02-04T16:26:55.320Z,1.47
2023-02-04T16:29:22.403Z,1.40
2023-02-04T16:31:49.482Z,1.50
2023-02-04T16:34:16.595Z,1.80
2023-02-04T16:36:43.663Z,2.20
2023-02-04T16:39:10.795Z,1.63
2023-02-04T16:41:37.857Z,1.60
2023-02-04T16:44:04.951Z,2.27
2023-02-04T16:46:33.722Z,1.97
2023-02-04T16:49:01.576Z,1.83
2023-02-04T16:51:29.197Z,1.97
2023-02-04T16:53:56.323Z,1.50
2023-02-04T16:56:23.456Z,1.13
2023-02-04T16:58:50.557Z,1.10
2023-02-04T17:01:17.646Z,0.93
2023-02-04T17:03:44.867Z,1.30
2023-02-04T17:06:16.229Z,2.10
2023-02-04T17:08:43.527Z,2.67
2023-02-04T17:11:29.100Z,2.40
2023-02-04T17:13:56.740Z,2.20
2023-02-04T17:16:23.927Z,3.60
2023-02-04T17:18:51.090Z,4.50
2023-02-04T17:21:18.209Z,3.33
2023-02-04T17:23:45.552Z,2.80
2023-02-04T17:26:12.635Z,2.47
2023-02-04T17:28:39.769Z,2.50
2023-02-04T17:31:07.074Z,2.60
2023-02-04T17:33:34.708Z,2.30
2023-02-04T17:36:01.958Z,2.10
2023-02-04T17:38:29.372Z,3.00
2023-02-04T17:40:56.569Z,3.20
2023-02-04T17:43:24.640Z,2.40
2023-02-04T17:45:51.993Z,1.80
2023-02-04T17:48:19.545Z,2.50
2023-02-04T17:50:46.711Z,1.80
2023-02-04T17:53:13.789Z,1.50
2023-02-04T17:55:40.857Z,1.37
2023-02-04T17:58:11.969Z,1.00
2023-02-04T18:00:39.494Z,1.20
2023-02-04T18:03:11.325Z,1.17
2023-02-04T18:05:41.161Z,1.20
2023-02-04T18:08:11.088Z,1.00
2023-02-04T18:10:39.011Z,1.50
2023-02-04T18:13:17.955Z,2.20
2023-02-04T18:15:47.282Z,3.20
2023-02-04T18:18:20.714Z,3.37
2023-02-04T18:20:48.455Z,2.00
2023-02-04T18:23:16.866Z,1.70
2023-02-04T18:25:44.556Z,1.70
2023-02-04T18:28:15.341Z,1.90
2023-02-04T18:30:43.068Z,1.70
2023-02-04T18:33:19.476Z,1.60
2023-02-04T18:35:48.181Z,2.10
2023-02-04T18:38:22.050Z,1.83
2023-02-04T18:40:49.650Z,1.60
2023-02-04T18:43:24.643Z,2.30
2023-02-04T18:45:52.075Z,2.03
2023-02-04T18:48:24.911Z,2.13
2023-02-04T18:50:54.080Z,2.03
2023-02-04T18:53:25.396Z,2.27
2023-02-04T18:55:53.620Z,2.03
2023-02-04T18:58:27.756Z,2.27
2023-02-04T19:01:02.367Z,2.73
2023-02-04T19:03:42.364Z,2.80
2023-02-04T19:06:35.744Z,2.27
2023-02-04T19:09:25.996Z,1.80
2023-02-04T19:11:53.123Z,2.93
2023-02-04T19:14:39.860Z,2.97
2023-02-04T19:17:27.063Z,3.17
2023-02-04T19:20:20.508Z,2.50
2023-02-04T19:22:49.706Z,2.20
2023-02-04T19:25:25.840Z,2.10
2023-02-04T19:27:57.026Z,2.20
2023-02-04T19:30:27.269Z,2.03
2023-02-04T19:32:56.997Z,1.97
2023-02-04T19:35:25.345Z,2.10
2023-02-04T19:37:52.553Z,1.77
2023-02-04T19:40:31.033Z,1.77
2023-02-04T19:43:04.585Z,2.23
2023-02-04T19:45:31.983Z,2.00
2023-02-04T19:47:59.415Z,2.00
2023-02-04T19:50:35.635Z,2.23
2023-02-04T19:53:03.760Z,2.00
2023-02-04T19:55:33.222Z,2.30
2023-02-04T19:58:00.379Z,1.97
2023-02-04T20:00:30.351Z,1.57
2023-02-04T20:02:57.823Z,1.80
2023-02-04T20:05:26.558Z,2.57
2023-02-04T20:07:53.577Z,3.50
2023-02-04T20:10:25.469Z,3.60
2023-02-04T20:12:55.694Z,2.60
2023-02-04T20:15:25.916Z,2.13
2023-02-04T20:17:53.621Z,1.53
2023-02-04T20:20:23.641Z,1.80
2023-02-04T20:22:52.594Z,1.77
2023-02-04T20:25:19.696Z,1.70
2023-02-04T20:27:47.541Z,1.87
2023-02-04T20:30:14.777Z,1.73
2023-02-04T20:32:46.307Z,2.10
2023-02-04T20:35:13.349Z,1.60
2023-02-04T20:37:43.948Z,1.80
2023-02-04T20:40:20.048Z,1.87
2023-02-04T20:42:48.367Z,1.80
2023-02-04T20:45:34.430Z,2.60
2023-02-04T20:48:10.710Z,1.97
2023-02-04T20:50:38.204Z,2.10
2023-02-04T20:53:22.126Z,1.73
2023-02-04T20:55:53.873Z,1.80
2023-02-04T20:58:22.970Z,1.63
2023-02-04T21:00:53.761Z,1.80
2023-02-04T21:03:25.671Z,1.90
2023-02-04T21:05:53.298Z,1.50
2023-02-04T21:08:42.015Z,1.90
2023-02-04T21:11:09.342Z,1.97
2023-02-04T21:13:36.468Z,1.60
2023-02-04T21:16:04.223Z,1.50
2023-02-04T21:18:34.014Z,1.73
2023-02-04T21:21:04.933Z,1.37
2023-02-04T21:23:32.011Z,1.40
2023-02-04T21:25:59.244Z,1.13
2023-02-04T21:28:26.390Z,1.33
2023-02-04T21:30:53.490Z,1.40
2023-02-04T21:33:20.697Z,1.33
2023-02-04T21:35:47.830Z,1.37
2023-02-04T21:38:14.960Z,1.50
2023-02-04T21:40:42.268Z,1.40
2023-02-04T21:43:09.597Z,1.30
2023-02-04T21:45:37.715Z,1.97
2023-02-04T21:48:05.392Z,1.50
2023-02-04T21:50:33.013Z,1.80
2023-02-04T21:53:00.256Z,1.80
2023-02-04T21:55:28.701Z,1.40
2023-02-04T21:57:55.817Z,1.27
2023-02-04T22:00:23.749Z,1.40
2023-02-04T22:02:54.429Z,1.20
2023-02-04T22:05:22.084Z,1.10
2023-02-04T22:07:49.296Z,1.13
2023-02-04T22:10:18.168Z,1.10
2023-02-04T22:12:45.292Z,1.20
2023-02-04T22:15:18.682Z,1.00
2023-02-04T22:17:45.919Z,0.83
2023-02-04T22:20:15.585Z,0.90
2023-02-04T22:22:43.722Z,0.70
2023-02-04T22:25:11.165Z,0.80
2023-02-04T22:27:38.335Z,1.00
2023-02-04T22:30:06.283Z,1.10
2023-02-04T22:32:33.413Z,1.10
2023-02-04T22:35:00.600Z,1.00
2023-02-04T22:37:27.771Z,1.50
2023-02-04T22:39:54.847Z,3.87
2023-02-04T22:42:21.912Z,1.67
2023-02-04T22:44:48.985Z,1.00
2023-02-04T22:47:16.250Z,1.07
2023-02-04T22:49:43.301Z,1.20
2023-02-04T22:52:10.433Z,0.87
2023-02-04T22:54:37.852Z,0.83
2023-02-04T22:57:04.977Z,0.70
2023-02-04T22:59:32.060Z,0.80
2023-02-04T23:01:59.219Z,0.73
2023-02-04T23:04:26.426Z,0.67
2023-02-04T23:06:53.815Z,0.90
2023-02-04T23:09:21.393Z,0.77
2023-02-04T23:11:49.581Z,0.60
2023-02-04T23:14:16.700Z,0.83
2023-02-04T23:16:43.837Z,1.03
2023-02-04T23:19:10.916Z,0.60
2023-02-04T23:21:37.960Z,0.70
2023-02-04T23:24:05.189Z,0.83
2023-02-04T23:26:32.216Z,0.80
2023-02-04T23:29:01.020Z,0.80
2023-02-04T23:31:28.682Z,0.67
2023-02-04T23:33:55.801Z,0.80
2023-02-04T23:36:22.948Z,0.70
2023-02-04T23:38:50.056Z,0.60
2023-02-04T23:41:17.185Z,0.80
2023-02-04T23:43:44.226Z,0.60
2023-02-04T23:46:11.320Z,0.80
2023-02-04T23:48:38.438Z,0.60
2023-02-04T23:51:05.641Z,0.80
2023-02-04T23:53:32.743Z,0.80
2023-02-04T23:55:59.800Z,0.70
2023-02-04T23:58:27.008Z,1.90
